Terminal Aerodrome Forecast
Issued by NWS

Home | Current Version | Previous Version | Text Only | Print | Product List | Glossary On
Versions: 1 2 3 4 5 6 7 8 9 10 11 12 13 14 15 16 17
000
FTUS41 KAKQ 041724
TAFPHF
TAF
KPHF 041724Z 0418/0518 07009KT P6SM SCT050 SCT250
     FM050500 04005KT P6SM OVC025
     FM050800 05008KT 4SM BR OVC012
     FM051400 05010G15KT P6SM BKN020=

USA.gov is the U.S. government's official web portal to all federal, state and local government web resources and services.